createdAt,value
2022-08-29T00:00:30.455Z,487.83
2022-08-29T00:03:02.277Z,496.40
2022-08-29T00:05:40.027Z,486.43
2022-08-29T00:08:11.794Z,490.80
2022-08-29T00:10:42.757Z,493.67
2022-08-29T00:13:14.192Z,479.80
2022-08-29T00:15:45.499Z,481.67
2022-08-29T00:18:16.904Z,486.93
2022-08-29T00:20:47.622Z,480.73
2022-08-29T00:23:17.429Z,489.20
2022-08-29T00:25:47.153Z,487.70
2022-08-29T00:28:17.309Z,491.80
2022-08-29T00:30:47.410Z,475.30
2022-08-29T00:33:17.445Z,494.17
2022-08-29T00:35:48.391Z,482.07
2022-08-29T00:38:19.903Z,484.77
2022-08-29T00:40:55.460Z,464.03
2022-08-29T00:43:28.994Z,487.60
2022-08-29T00:45:58.644Z,476.90
2022-08-29T00:48:28.702Z,469.03
2022-08-29T00:51:04.466Z,484.37
2022-08-29T00:53:39.853Z,486.57
2022-08-29T00:56:12.863Z,485.83
2022-08-29T00:58:50.507Z,477.90
2022-08-29T01:01:21.311Z,478.70
2022-08-29T01:03:51.625Z,488.37
2022-08-29T01:06:22.520Z,482.73
2022-08-29T01:08:57.596Z,489.70
2022-08-29T01:11:44.719Z,489.67
2022-08-29T01:14:14.565Z,491.77
2022-08-29T01:16:45.003Z,477.77
2022-08-29T01:19:42.619Z,488.80
2022-08-29T01:22:39.991Z,473.47
2022-08-29T01:25:15.196Z,479.47
2022-08-29T01:27:49.234Z,486.67
2022-08-29T01:30:18.925Z,482.60
2022-08-29T01:32:49.094Z,476.53
2022-08-29T01:35:18.809Z,486.63
2022-08-29T01:37:48.967Z,471.80
2022-08-29T01:40:18.836Z,478.40
2022-08-29T01:42:48.577Z,483.83
2022-08-29T01:45:18.278Z,486.00
2022-08-29T01:47:47.990Z,468.50
2022-08-29T01:50:18.606Z,486.57
2022-08-29T01:52:48.326Z,489.23
2022-08-29T01:55:18.080Z,488.67
2022-08-29T01:57:48.835Z,485.73
2022-08-29T02:00:21.282Z,480.43
2022-08-29T02:02:51.158Z,478.87
2022-08-29T02:05:23.750Z,487.13
2022-08-29T02:07:53.666Z,489.37
2022-08-29T02:10:23.510Z,478.07
2022-08-29T02:12:55.357Z,479.70
2022-08-29T02:15:25.266Z,479.30
2022-08-29T02:17:55.075Z,479.23
2022-08-29T02:20:24.807Z,486.47
2022-08-29T02:22:54.466Z,489.97
2022-08-29T02:25:36.541Z,482.97
2022-08-29T02:28:06.780Z,492.40
2022-08-29T02:30:37.251Z,480.43
2022-08-29T02:33:07.513Z,470.13
2022-08-29T02:35:42.774Z,482.70
2022-08-29T02:38:13.506Z,480.43
2022-08-29T02:40:43.844Z,489.63
2022-08-29T02:43:15.578Z,477.93
2022-08-29T02:45:46.189Z,479.47
2022-08-29T02:48:16.788Z,488.67
2022-08-29T02:50:51.642Z,480.70
2022-08-29T02:53:23.036Z,473.87
2022-08-29T02:55:54.070Z,486.33
2022-08-29T02:58:25.689Z,486.37
2022-08-29T03:00:56.811Z,497.50
2022-08-29T03:03:27.319Z,476.27
2022-08-29T03:05:57.901Z,496.43
2022-08-29T03:08:27.894Z,487.63
2022-08-29T03:10:57.707Z,475.10
2022-08-29T03:13:27.418Z,478.90
2022-08-29T03:15:57.170Z,480.43
2022-08-29T03:18:26.922Z,482.27
2022-08-29T03:20:56.574Z,495.57
2022-08-29T03:23:26.279Z,480.93
2022-08-29T03:25:56.210Z,480.10
2022-08-29T03:28:25.930Z,492.93
2022-08-29T03:30:55.727Z,487.97
2022-08-29T03:33:25.630Z,485.73
2022-08-29T03:35:55.518Z,481.93
2022-08-29T03:38:25.672Z,484.60
2022-08-29T03:40:55.678Z,475.50
2022-08-29T03:43:27.988Z,486.83
2022-08-29T03:45:57.734Z,477.37
2022-08-29T03:48:27.733Z,472.47
2022-08-29T03:50:57.426Z,485.93
2022-08-29T03:53:27.134Z,482.40
2022-08-29T03:55:56.893Z,486.00
2022-08-29T03:58:26.800Z,476.20
2022-08-29T04:00:56.603Z,481.90
2022-08-29T04:03:31.514Z,471.30
2022-08-29T04:06:01.986Z,486.77
2022-08-29T04:08:31.735Z,477.57
2022-08-29T04:11:01.477Z,487.97
2022-08-29T04:13:31.159Z,480.67
2022-08-29T04:16:00.866Z,481.60
2022-08-29T04:18:30.801Z,483.87
2022-08-29T04:21:05.476Z,490.93
2022-08-29T04:23:37.037Z,480.13
2022-08-29T04:26:27.163Z,478.60
2022-08-29T04:28:57.085Z,484.60
2022-08-29T04:31:26.825Z,494.07
2022-08-29T04:33:56.799Z,486.50
2022-08-29T04:36:26.547Z,493.13
2022-08-29T04:38:56.271Z,491.23
2022-08-29T04:41:26.005Z,488.90
2022-08-29T04:43:55.933Z,497.07
2022-08-29T04:46:26.190Z,502.50
2022-08-29T04:48:59.514Z,478.10
2022-08-29T04:51:34.560Z,495.40
2022-08-29T04:54:06.732Z,490.30
2022-08-29T04:56:38.310Z,491.37
2022-08-29T04:59:12.856Z,494.43
2022-08-29T05:01:42.672Z,488.00
2022-08-29T05:04:14.591Z,490.53
2022-08-29T05:06:44.609Z,494.40
2022-08-29T05:09:14.322Z,496.50
2022-08-29T05:11:44.085Z,482.90
2022-08-29T05:14:13.952Z,487.80
2022-08-29T05:16:43.966Z,498.00
2022-08-29T05:19:16.017Z,496.60
2022-08-29T05:21:46.358Z,488.90
2022-08-29T05:24:19.219Z,499.23
2022-08-29T05:26:48.925Z,498.23
2022-08-29T05:29:20.448Z,498.13
2022-08-29T05:31:50.346Z,487.80
2022-08-29T05:34:34.268Z,494.27
2022-08-29T05:37:07.390Z,497.70
2022-08-29T05:39:38.479Z,495.07
2022-08-29T05:42:10.073Z,481.17
2022-08-29T05:44:40.619Z,491.53
2022-08-29T05:47:12.843Z,494.83
2022-08-29T05:49:44.963Z,495.80
2022-08-29T05:52:18.062Z,499.43
2022-08-29T05:54:48.200Z,497.43
2022-08-29T05:57:20.699Z,491.77
2022-08-29T05:59:55.558Z,494.03
2022-08-29T06:02:26.549Z,494.13
2022-08-29T06:04:57.267Z,486.10
2022-08-29T06:07:27.012Z,481.43
2022-08-29T06:09:56.845Z,482.27
2022-08-29T06:12:33.743Z,478.83
2022-08-29T06:15:03.485Z,480.97
2022-08-29T06:17:33.217Z,470.97
2022-08-29T06:20:02.917Z,469.30
2022-08-29T06:22:35.117Z,477.57
2022-08-29T06:25:28.353Z,484.53
2022-08-29T06:27:59.382Z,475.63
2022-08-29T06:30:29.121Z,485.93
2022-08-29T06:32:59.723Z,479.43
2022-08-29T06:35:29.763Z,473.50
2022-08-29T06:37:59.658Z,482.63
2022-08-29T06:40:29.363Z,470.93
2022-08-29T06:42:59.138Z,481.37
2022-08-29T06:45:28.922Z,475.33
2022-08-29T06:47:58.774Z,467.63
2022-08-29T06:50:28.547Z,463.77
2022-08-29T06:53:09.290Z,488.60
2022-08-29T06:55:48.006Z,477.67
2022-08-29T06:58:18.084Z,480.73
2022-08-29T07:00:49.818Z,470.57
2022-08-29T07:03:19.749Z,490.07
2022-08-29T07:05:55.258Z,486.40
2022-08-29T07:08:25.006Z,463.40
2022-08-29T07:10:54.966Z,474.83
2022-08-29T07:13:24.691Z,476.90
2022-08-29T07:15:55.187Z,474.93
2022-08-29T07:18:25.016Z,470.43
2022-08-29T07:20:55.233Z,475.30
2022-08-29T07:23:25.498Z,480.70
2022-08-29T07:25:55.381Z,481.70
2022-08-29T07:28:25.111Z,484.97
2022-08-29T07:30:55.582Z,491.73
2022-08-29T07:33:25.403Z,484.77
2022-08-29T07:35:55.397Z,476.23
2022-08-29T07:38:25.386Z,477.07
2022-08-29T07:41:03.406Z,488.97
2022-08-29T07:43:33.647Z,492.13
2022-08-29T07:46:12.158Z,496.00
2022-08-29T07:48:42.538Z,476.43
2022-08-29T07:51:15.365Z,501.57
2022-08-29T07:53:46.785Z,488.83
2022-08-29T07:56:19.830Z,488.87
2022-08-29T07:58:49.635Z,498.50
2022-08-29T08:01:21.124Z,500.50
2022-08-29T08:03:52.143Z,494.60
2022-08-29T08:06:27.287Z,492.67
2022-08-29T08:08:58.081Z,503.17
2022-08-29T08:11:29.617Z,511.03
2022-08-29T08:14:00.415Z,500.73
2022-08-29T08:16:31.362Z,507.93
2022-08-29T08:19:01.495Z,508.47
2022-08-29T08:21:31.230Z,484.93
2022-08-29T08:24:00.907Z,511.83
2022-08-29T08:26:31.231Z,506.70
2022-08-29T08:29:00.870Z,519.00
2022-08-29T08:31:30.779Z,514.10
2022-08-29T08:34:00.635Z,523.73
2022-08-29T08:36:40.226Z,517.07
2022-08-29T08:39:10.634Z,511.27
2022-08-29T08:41:52.503Z,520.27
2022-08-29T08:44:24.999Z,508.43
2022-08-29T08:46:59.510Z,679.30
2022-08-29T08:49:40.167Z,556.60
2022-08-29T08:52:17.587Z,545.37
2022-08-29T08:55:01.915Z,534.37
2022-08-29T08:57:40.065Z,528.53
2022-08-29T09:00:13.197Z,529.53
2022-08-29T09:03:04.785Z,524.00
2022-08-29T09:05:49.189Z,519.47
2022-08-29T09:08:28.226Z,533.60
2022-08-29T09:11:20.399Z,513.53
2022-08-29T09:14:18.362Z,536.27
2022-08-29T09:16:53.928Z,518.17
2022-08-29T09:19:23.987Z,537.93
2022-08-29T09:22:02.426Z,530.33
2022-08-29T09:24:41.857Z,538.30
2022-08-29T09:27:20.914Z,542.73
2022-08-29T09:29:53.488Z,552.70
2022-08-29T09:32:23.245Z,549.13
2022-08-29T09:35:09.476Z,561.43
2022-08-29T09:37:39.879Z,548.97
2022-08-29T09:40:19.041Z,560.53
2022-08-29T09:43:04.278Z,561.50
2022-08-29T09:45:34.040Z,563.33
2022-08-29T09:48:21.567Z,544.77
2022-08-29T09:50:51.335Z,567.47
2022-08-29T09:53:26.733Z,582.10
2022-08-29T09:55:56.799Z,575.37
2022-08-29T09:58:26.421Z,587.00
2022-08-29T10:01:28.745Z,583.03
2022-08-29T10:04:05.942Z,568.17
2022-08-29T10:06:45.111Z,566.50
2022-08-29T10:09:37.370Z,581.90
2022-08-29T10:12:22.322Z,578.70
2022-08-29T10:14:57.459Z,590.37
2022-08-29T10:17:55.877Z,595.40
2022-08-29T10:20:49.957Z,589.47
2022-08-29T10:23:36.428Z,596.57
2022-08-29T10:26:14.518Z,586.60
2022-08-29T10:29:12.524Z,582.13
2022-08-29T10:31:53.766Z,573.43
2022-08-29T10:34:35.245Z,601.20
2022-08-29T10:37:12.380Z,612.60
2022-08-29T10:40:00.539Z,605.07
2022-08-29T10:42:34.539Z,598.13
2022-08-29T10:45:30.835Z,605.57
2022-08-29T10:48:14.427Z,588.90
2022-08-29T10:51:08.944Z,593.10
2022-08-29T10:53:50.214Z,598.30
2022-08-29T10:56:30.418Z,604.93
2022-08-29T10:59:23.394Z,608.07
2022-08-29T11:02:00.274Z,606.73
2022-08-29T11:04:38.999Z,611.17
2022-08-29T11:07:37.743Z,636.97
2022-08-29T11:10:15.367Z,633.37
2022-08-29T11:12:52.951Z,638.00
2022-08-29T11:15:48.368Z,645.77
2022-08-29T11:18:22.539Z,652.80
2022-08-29T11:20:59.022Z,660.43
2022-08-29T11:23:42.779Z,656.27
2022-08-29T11:26:43.638Z,666.27
2022-08-29T11:29:38.558Z,678.63
2022-08-29T11:32:19.561Z,671.07
2022-08-29T11:35:11.409Z,676.97
2022-08-29T11:37:53.106Z,695.33
2022-08-29T11:43:28.439Z,689.07
2022-08-29T11:46:03.056Z,689.27
2022-08-29T11:48:55.819Z,686.83
2022-08-29T11:51:37.836Z,691.23
2022-08-29T11:54:26.402Z,699.57
2022-08-29T11:57:05.054Z,672.70
2022-08-29T11:59:49.824Z,669.60
2022-08-29T12:02:31.951Z,676.90
2022-08-29T12:05:01.539Z,678.80
2022-08-29T12:07:52.486Z,677.90
2022-08-29T12:10:25.029Z,676.77
2022-08-29T12:13:06.763Z,672.60
2022-08-29T12:15:36.342Z,686.47
2022-08-29T12:18:25.930Z,691.37
2022-08-29T12:20:56.998Z,708.00
2022-08-29T12:23:36.419Z,709.30
2022-08-29T12:26:23.826Z,721.43
2022-08-29T12:29:02.406Z,714.70
2022-08-29T12:32:18.180Z,729.07
2022-08-29T12:34:57.326Z,720.30
2022-08-29T12:37:36.786Z,732.57
2022-08-29T12:40:37.061Z,737.50
2022-08-29T12:43:41.537Z,746.23
2022-08-29T12:46:49.299Z,738.07
2022-08-29T12:49:24.442Z,746.67
2022-08-29T12:52:01.208Z,751.83
2022-08-29T12:54:41.539Z,761.13
2022-08-29T12:57:25.386Z,763.17
2022-08-29T12:59:56.903Z,765.77
2022-08-29T13:02:26.552Z,750.67
2022-08-29T13:04:56.470Z,749.60
2022-08-29T13:07:27.582Z,745.67
2022-08-29T13:10:03.651Z,742.27
2022-08-29T13:12:36.775Z,753.37
2022-08-29T13:15:19.886Z,743.90
2022-08-29T13:17:51.907Z,744.63
2022-08-29T13:20:52.842Z,748.60
2022-08-29T13:23:25.687Z,752.10
2022-08-29T13:26:09.203Z,744.23
2022-08-29T13:28:38.885Z,745.60
2022-08-29T13:31:14.764Z,757.73
2022-08-29T13:34:04.470Z,757.97
2022-08-29T13:36:42.443Z,766.23
2022-08-29T13:39:25.302Z,779.50
2022-08-29T13:42:04.510Z,776.53
2022-08-29T13:44:40.179Z,789.57
2022-08-29T13:47:19.255Z,804.87
2022-08-29T13:49:49.423Z,799.87
2022-08-29T13:52:20.796Z,807.20
2022-08-29T13:54:50.699Z,801.77
2022-08-29T13:57:23.994Z,820.27
2022-08-29T13:59:53.919Z,822.20
2022-08-29T14:02:25.216Z,823.80
2022-08-29T14:04:55.211Z,832.57
2022-08-29T14:07:32.531Z,834.90
2022-08-29T14:10:02.285Z,845.90
2022-08-29T14:12:33.756Z,850.07
2022-08-29T14:15:10.062Z,862.73
2022-08-29T14:17:43.107Z,851.73
2022-08-29T14:20:13.983Z,848.27
2022-08-29T14:22:44.100Z,865.53
2022-08-29T14:25:15.376Z,859.00
2022-08-29T14:27:47.496Z,870.83
2022-08-29T14:30:20.829Z,872.73
2022-08-29T14:32:50.601Z,872.93
2022-08-29T14:35:26.731Z,883.07
2022-08-29T14:38:02.073Z,884.50
2022-08-29T14:40:33.582Z,879.27
2022-08-29T14:43:05.308Z,893.93
2022-08-29T14:45:35.826Z,891.13
2022-08-29T14:48:06.544Z,895.20
2022-08-29T14:50:36.909Z,900.03
2022-08-29T14:53:06.730Z,895.73
2022-08-29T14:55:36.479Z,900.23
2022-08-29T14:58:07.075Z,902.87
2022-08-29T15:00:36.841Z,896.23
2022-08-29T15:03:06.951Z,905.93
2022-08-29T15:05:37.190Z,904.60
2022-08-29T15:08:07.088Z,907.97
2022-08-29T15:10:37.246Z,901.30
2022-08-29T15:13:07.500Z,914.40
2022-08-29T15:15:37.551Z,918.57
2022-08-29T15:18:08.301Z,918.93
2022-08-29T15:20:40.149Z,927.73
2022-08-29T15:23:13.195Z,918.47
2022-08-29T15:25:45.094Z,925.50
2022-08-29T15:28:21.804Z,921.07
2022-08-29T15:30:51.653Z,930.87
2022-08-29T15:33:21.406Z,922.93
2022-08-29T15:35:51.515Z,928.07
2022-08-29T15:38:21.566Z,934.07
2022-08-29T15:40:51.312Z,927.10
2022-08-29T15:43:20.981Z,928.33
2022-08-29T15:45:50.796Z,933.60
2022-08-29T15:48:20.582Z,937.53
2022-08-29T15:50:50.980Z,939.57
2022-08-29T15:53:20.744Z,955.03
2022-08-29T15:55:50.529Z,959.30
2022-08-29T15:58:20.419Z,967.90
2022-08-29T16:00:50.158Z,960.50
2022-08-29T16:03:19.844Z,959.30
2022-08-29T16:05:49.734Z,941.43
2022-08-29T16:08:19.826Z,935.90
2022-08-29T16:10:52.295Z,925.20
2022-08-29T16:13:22.058Z,929.27
2022-08-29T16:15:51.911Z,935.77
2022-08-29T16:18:21.667Z,950.20
2022-08-29T16:20:51.530Z,953.83
2022-08-29T16:23:26.791Z,962.77
2022-08-29T16:25:56.743Z,947.17
2022-08-29T16:28:28.904Z,932.03
2022-08-29T16:30:58.727Z,914.30
2022-08-29T16:33:28.552Z,897.73
2022-08-29T16:35:58.507Z,869.03
2022-08-29T16:38:28.716Z,829.23
2022-08-29T16:40:58.592Z,838.80
2022-08-29T16:43:28.243Z,833.50
2022-08-29T16:45:58.131Z,821.37
2022-08-29T16:48:28.233Z,812.97
2022-08-29T16:50:57.934Z,797.80
2022-08-29T16:53:27.621Z,791.17
2022-08-29T16:55:57.362Z,775.60
2022-08-29T16:58:39.738Z,776.07
2022-08-29T17:01:09.867Z,868.58
2022-08-29T17:03:39.620Z,772.63
2022-08-29T17:06:09.518Z,753.47
2022-08-29T17:08:37.490Z,743.73
2022-08-29T17:11:04.619Z,729.93
2022-08-29T17:13:31.991Z,723.83
2022-08-29T17:16:05.874Z,704.77
2022-08-29T17:18:36.670Z,706.67
2022-08-29T17:21:06.706Z,707.00
2022-08-29T17:23:38.588Z,688.27
2022-08-29T17:26:11.894Z,677.03
2022-08-29T17:28:42.842Z,670.93
2022-08-29T17:31:12.687Z,657.47
2022-08-29T17:33:42.998Z,662.03
2022-08-29T17:36:13.915Z,643.53
2022-08-29T17:38:46.727Z,640.07
2022-08-29T17:41:22.044Z,650.73
2022-08-29T17:43:53.008Z,654.53
2022-08-29T17:46:24.007Z,651.80
2022-08-29T17:48:54.212Z,629.43
2022-08-29T17:51:24.317Z,629.70
2022-08-29T17:53:54.945Z,619.10
2022-08-29T17:56:32.796Z,619.53
2022-08-29T17:59:05.517Z,599.73
2022-08-29T18:01:36.987Z,617.07
2022-08-29T18:04:07.003Z,598.17
2022-08-29T18:06:37.251Z,600.93
2022-08-29T18:09:08.362Z,593.77
2022-08-29T18:11:47.135Z,587.23
2022-08-29T18:14:16.961Z,582.53
2022-08-29T18:16:46.989Z,578.07
2022-08-29T18:19:17.453Z,584.03
2022-08-29T18:21:47.867Z,570.77
2022-08-29T18:24:17.695Z,564.30
2022-08-29T18:26:49.666Z,557.87
2022-08-29T18:29:19.580Z,550.00
2022-08-29T18:31:49.392Z,565.03
